Главная страница
METAR-TAF:

METAR-TAF

Аэропорты :

Тулча, Румыния

широта: 45-11N, долгота: 028-49E, высота над уровнем моря: 4 м

Текущие метеонаблюдения

Эта сводка был подготовлена 26 минут назад, в 15:00 UTC
Ветер 4 Узел от северный
Температура 14°C
Влажность 72%
Давление 1015 hPa
Видимость 10 км и более
Нет облачности ниже 1500 м, и нет кучево-дождевой облачности

METAR: LRTC 221500Z 01004KT CAVOK 14/09 Q1015

Время: 18:26 (15:26 UTC)

Прогноз

Эта сводка был подготовлена 1 час и 26 минут назад, в 14:00 UTC
Прогноз действительный с 22-го 15 UTC до 22-го 24 UTC
Ветер 8 Узел от северный
Видимость 10 км и более
Нет облачности ниже 1500 м, и нет кучево-дождевой облачности
изменения
С 22-го 21 UTC до 22-го 23 UTC
Рассеянная облачность на высоте 1000 фута

TAF: LRTC 221400Z 2215/2224 36008KT CAVOK BECMG 2221/2223 BKN010

Метеонаблюдения и прогнозы для более 4000 аэропортов (сводки METAR и TAF).

Имеющиеся станции представлены на карте желтыми и красными точками.

Чтобы увидеть название станции, наведите на нее мышь.

Затем щелкните, чтобы увидеть метеонаблюдения и метеопрогнозы.

Управление картой: чтобы увеличить масштаб, щелкните зеленые кнопки с черным крестиком; чтобы уменьшить масштаб, щелкните зеленую кнопку с тире; для просмотра соседних карт щелкайте зеленые стрелки.


METAR-TAF: